Terminal Aerodrome Forecast
Issued by NWS

Home | Current Version | Previous Version | Text Only | Print | Product List | Glossary On
Versions: 1 2 3 4 5 6 7 8 9 10 11 12 13 14 15
000
FTUS45 KRIW 250748 AAA
TAFJAC
TAF AMD
KJAC 250748Z 2508/2606 23011KT 2SM -SN SCT007 OVC015
     FM251700 19007KT 6SM -SN SCT020 BKN035
     FM252000 19007KT P6SM VCSH SCT025 BKN040
     FM260100 VRB05KT P6SM BKN040
      AMD LTD TO CLD VIS AND WIND=

USA.gov is the U.S. government's official web portal to all federal, state and local government web resources and services.